Time;durP1;ratioP1;P1;durP2;ratioP2;P2;SDS_P1;SDS_P2;PMS_P1;PMS_P2;Temp;Humidity;BMP_temperature;BMP_pressure;BME280_temperature;BME280_humidity;BME280_pressure;Samples;Min_cycle;Max_cycle;Signal;HPM_P1;HPM_P2
2022/10/24 00:00:21;;;;;;;1.55;1.40;;;18.00;60.20;;;;;;4967725;29;20082;-69
2022/10/24 00:02:47;;;;;;;1.38;1.27;;;18.00;60.20;;;;;;4967613;29;20055;-67
2022/10/24 00:05:13;;;;;;;1.52;1.27;;;18.00;60.20;;;;;;4967667;28;20343;-67
2022/10/24 00:07:40;;;;;;;1.50;1.40;;;18.00;60.20;;;;;;4967615;29;20021;-68
2022/10/24 00:10:07;;;;;;;1.48;1.30;;;18.00;60.20;;;;;;4966762;28;20019;-68
2022/10/24 00:12:33;;;;;;;1.63;1.52;;;18.00;60.20;;;;;;4967532;29;20019;-67
2022/10/24 00:14:59;;;;;;;1.52;1.35;;;18.00;60.20;;;;;;4967455;29;20057;-68
2022/10/24 00:17:25;;;;;;;1.42;1.23;;;18.00;60.20;;;;;;4967415;29;20030;-68
2022/10/24 00:19:53;;;;;;;1.30;1.20;;;18.00;60.20;;;;;;4967395;29;20078;-67
2022/10/24 00:22:19;;;;;;;1.60;1.17;;;18.00;60.30;;;;;;4967319;28;20022;-67
2022/10/24 00:24:45;;;;;;;1.42;1.33;;;18.00;60.30;;;;;;4967322;29;20023;-67
2022/10/24 00:27:11;;;;;;;1.50;1.40;;;18.00;60.30;;;;;;4967287;28;20022;-67
2022/10/24 00:29:37;;;;;;;1.63;1.52;;;18.00;60.30;;;;;;4967202;29;20024;-67
2022/10/24 00:32:03;;;;;;;0.85;0.85;;;18.00;60.30;;;;;;4967189;29;20011;-67
2022/10/24 00:34:29;;;;;;;1.45;1.10;;;18.00;60.20;;;;;;4967114;29;20046;-68
2022/10/24 00:36:54;;;;;;;1.25;1.15;;;18.00;60.20;;;;;;4967068;29;20077;-67
2022/10/24 00:39:20;;;;;;;1.48;1.30;;;18.00;60.20;;;;;;4966904;29;20039;-67
2022/10/24 00:41:46;;;;;;;1.38;1.10;;;18.00;60.20;;;;;;4967029;29;20524;-68
2022/10/24 00:44:19;;;;;;;1.05;1.02;;;18.00;60.20;;;;;;4966867;29;20374;-67
2022/10/24 00:46:53;;;;;;;1.38;1.27;;;18.00;60.20;;;;;;4966958;28;20248;-68
2022/10/24 00:49:24;;;;;;;1.85;1.38;;;18.00;60.20;;;;;;4966882;29;20310;-67
2022/10/24 00:51:54;;;;;;;1.48;1.38;;;18.00;60.20;;;;;;4966859;29;20034;-68
2022/10/24 00:54:20;;;;;;;1.08;1.00;;;18.00;60.20;;;;;;4966743;29;20059;-68
2022/10/24 00:57:00;;;;;;;1.27;1.15;;;18.00;60.20;;;;;;4966690;29;20023;-68
2022/10/24 00:59:27;;;;;;;1.25;1.15;;;18.00;60.20;;;;;;4966687;29;20046;-67
2022/10/24 01:01:53;;;;;;;1.77;1.50;;;18.00;60.20;;;;;;4966610;29;20019;-67
2022/10/24 01:04:19;;;;;;;1.33;1.23;;;18.00;60.20;;;;;;4966493;29;20034;-67
2022/10/24 01:06:54;;;;;;;1.23;1.05;;;18.00;60.80;;;;;;4966523;29;20015;-66
2022/10/24 01:09:38;;;;;;;1.27;1.17;;;18.00;60.20;;;;;;4966491;29;20019;-68
2022/10/24 01:12:42;;;;;;;1.55;1.45;;;18.00;60.30;;;;;;4966667;29;20015;-67
2022/10/24 01:15:14;;;;;;;1.20;1.10;;;18.00;60.30;;;;;;4981606;28;20094;-68
2022/10/24 01:18:01;;;;;;;1.48;1.15;;;18.00;60.30;;;;;;4966320;29;20046;-68
2022/10/24 01:20:56;;;;;;;1.05;0.95;;;18.00;60.40;;;;;;4966332;29;20043;-68
2022/10/24 01:23:55;;;;;;;1.40;1.27;;;18.00;60.20;;;;;;4966176;29;20311;-67
2022/10/24 01:26:35;;;;;;;1.20;1.10;;;18.00;60.20;;;;;;4966130;29;20030;-67
2022/10/24 01:29:35;;;;;;;1.35;1.25;;;18.00;60.20;;;;;;4966160;29;20023;-67
2022/10/24 01:32:31;;;;;;;1.23;1.13;;;18.00;60.30;;;;;;4966111;28;20062;-67
2022/10/24 01:35:26;;;;;;;1.23;1.13;;;18.00;60.20;;;;;;4966079;28;20338;-67
2022/10/24 01:38:19;;;;;;;1.40;1.30;;;18.00;60.20;;;;;;4967236;28;20214;-68
2022/10/24 01:40:54;;;;;;;2.05;1.17;;;18.00;60.20;;;;;;4965957;28;20094;-68
2022/10/24 01:43:27;;;;;;;1.27;1.15;;;18.00;60.20;;;;;;4965810;29;20023;-68
2022/10/24 01:46:06;;;;;;;1.30;1.20;;;18.00;60.20;;;;;;4965849;29;20345;-67
2022/10/24 01:48:37;;;;;;;1.20;1.10;;;18.00;60.30;;;;;;4965822;29;20019;-67
2022/10/24 01:51:05;;;;;;;1.55;1.23;;;18.00;60.30;;;;;;4965790;29;20038;-67
2022/10/24 01:53:31;;;;;;;1.20;1.10;;;18.00;60.30;;;;;;4965697;29;20027;-67
2022/10/24 01:55:57;;;;;;;1.20;1.10;;;18.00;60.20;;;;;;4980636;28;20023;-67
2022/10/24 01:58:23;;;;;;;1.00;0.90;;;18.00;60.30;;;;;;4965613;29;20023;-67
2022/10/24 02:00:51;;;;;;;1.65;1.30;;;18.00;60.30;;;;;;4965581;29;20090;-68
2022/10/24 02:03:17;;;;;;;1.10;1.00;;;18.00;60.30;;;;;;4965494;29;20023;-67
2022/10/24 02:05:49;;;;;;;1.45;1.35;;;18.00;60.20;;;;;;4965557;29;20019;-68
2022/10/24 02:08:20;;;;;;;1.25;1.10;;;18.00;60.30;;;;;;4965523;28;20011;-67
2022/10/24 02:10:56;;;;;;;1.40;1.30;;;18.00;60.20;;;;;;4965550;29;20026;-67
2022/10/24 02:13:31;;;;;;;1.27;1.15;;;18.00;60.20;;;;;;4965502;29;20369;-67
2022/10/24 02:16:00;;;;;;;1.23;1.13;;;18.00;60.20;;;;;;4965466;28;20315;-67
2022/10/24 02:18:28;;;;;;;1.25;1.05;;;18.00;60.20;;;;;;4965377;29;20019;-68
2022/10/24 02:20:58;;;;;;;1.30;1.20;;;18.00;60.20;;;;;;4965378;29;20027;-67
2022/10/24 02:23:37;;;;;;;1.38;1.27;;;18.00;60.20;;;;;;4965308;29;20035;-68
2022/10/24 02:26:10;;;;;;;1.35;1.25;;;18.00;60.20;;;;;;4965356;28;20020;-67
2022/10/24 02:28:42;;;;;;;1.15;1.05;;;18.00;60.20;;;;;;4965316;28;20019;-67
2022/10/24 02:31:16;;;;;;;1.50;1.30;;;18.00;60.20;;;;;;4965294;29;20211;-68
2022/10/24 02:33:43;;;;;;;1.63;1.13;;;18.00;60.20;;;;;;4968816;28;20026;-68
2022/10/24 02:36:14;;;;;;;1.40;1.20;;;18.00;60.20;;;;;;4971645;29;20066;-68
2022/10/24 02:38:43;;;;;;;1.40;1.20;;;18.00;60.20;;;;;;4971472;28;20046;-68
2022/10/24 02:41:15;;;;;;;1.08;1.00;;;18.00;60.20;;;;;;4971554;29;20026;-67
2022/10/24 02:43:43;;;;;;;1.10;1.00;;;18.00;60.20;;;;;;4971496;28;20030;-67
2022/10/24 02:46:11;;;;;;;1.30;1.20;;;18.00;60.20;;;;;;4970407;29;20090;-67
2022/10/24 02:48:44;;;;;;;1.65;1.30;;;18.00;60.20;;;;;;4971531;29;20072;-67
2022/10/24 02:51:11;;;;;;;1.40;1.30;;;18.00;60.20;;;;;;4971513;28;20026;-67
2022/10/24 02:53:38;;;;;;;1.20;1.10;;;18.00;60.20;;;;;;4971459;28;20279;-67
2022/10/24 02:56:04;;;;;;;1.35;1.15;;;18.00;60.20;;;;;;4971448;28;20034;-67
2022/10/24 02:58:30;;;;;;;1.48;1.38;;;18.00;60.20;;;;;;4971436;28;20018;-68
2022/10/24 03:00:55;;;;;;;1.40;1.30;;;18.00;60.20;;;;;;4971451;28;20070;-67
2022/10/24 03:03:21;;;;;;;1.50;1.38;;;18.00;60.20;;;;;;4971314;28;20057;-67
2022/10/24 03:05:47;;;;;;;1.48;1.17;;;18.00;60.20;;;;;;4971392;28;20079;-68
2022/10/24 03:08:13;;;;;;;1.50;1.17;;;18.00;60.20;;;;;;4971350;28;20025;-67
2022/10/24 03:10:39;;;;;;;1.05;1.00;;;18.00;60.20;;;;;;4971333;28;20047;-67
2022/10/24 03:13:05;;;;;;;1.60;1.48;;;18.00;60.20;;;;;;4971304;29;20043;-68
2022/10/24 03:15:31;;;;;;;1.63;1.52;;;18.00;60.20;;;;;;4971249;28;20023;-67
2022/10/24 03:17:57;;;;;;;1.83;1.20;;;18.00;60.20;;;;;;4971221;29;20035;-67
2022/10/24 03:20:23;;;;;;;1.48;1.15;;;18.00;60.20;;;;;;4971245;28;20046;-68
2022/10/24 03:22:49;;;;;;;1.20;1.10;;;18.00;60.10;;;;;;4971138;29;20027;-68
2022/10/24 03:25:16;;;;;;;1.25;1.10;;;18.00;60.20;;;;;;4971128;29;20311;-68
2022/10/24 03:27:41;;;;;;;1.02;0.93;;;18.00;60.10;;;;;;4971179;28;20080;-68
2022/10/24 03:30:07;;;;;;;1.30;1.20;;;18.00;60.20;;;;;;4971153;28;20267;-67
2022/10/24 03:32:33;;;;;;;1.20;1.10;;;18.00;60.20;;;;;;4971140;29;20240;-67
2022/10/24 03:35:00;;;;;;;1.27;1.17;;;18.00;60.20;;;;;;4971090;28;20034;-67
2022/10/24 03:37:26;;;;;;;1.20;1.10;;;18.00;60.20;;;;;;4971115;29;20019;-68
2022/10/24 03:39:52;;;;;;;1.25;1.10;;;18.00;60.20;;;;;;4970935;29;20058;-67
2022/10/24 03:42:17;;;;;;;1.40;1.30;;;18.00;60.20;;;;;;4970953;29;20027;-68
2022/10/24 03:44:43;;;;;;;1.20;1.10;;;18.00;60.20;;;;;;4968669;28;20046;-67
2022/10/24 03:47:09;;;;;;;1.52;1.27;;;18.00;60.20;;;;;;4968034;28;20022;-67
2022/10/24 03:49:35;;;;;;;1.20;1.10;;;18.00;60.20;;;;;;4967920;29;20023;-67
2022/10/24 03:52:01;;;;;;;1.20;1.10;;;18.00;60.20;;;;;;4967902;29;20319;-67
2022/10/24 03:54:26;;;;;;;1.95;1.20;;;18.00;60.20;;;;;;4967859;29;20023;-67
2022/10/24 03:56:52;;;;;;;1.33;1.20;;;18.00;60.20;;;;;;4967844;29;20019;-68
2022/10/24 03:59:18;;;;;;;1.55;1.30;;;18.00;60.20;;;;;;4967798;29;20019;-67
2022/10/24 04:01:44;;;;;;;1.30;1.20;;;18.00;60.20;;;;;;4967773;29;20023;-68
2022/10/24 04:04:09;;;;;;;1.42;1.27;;;18.00;60.20;;;;;;4967659;29;20023;-67
2022/10/24 04:06:35;;;;;;;1.17;1.08;;;18.00;60.20;;;;;;4967656;29;20086;-67
2022/10/24 04:09:01;;;;;;;1.63;1.33;;;18.00;60.20;;;;;;4967610;29;20023;-67
2022/10/24 04:11:27;;;;;;;1.45;1.27;;;18.00;60.20;;;;;;4967597;29;20015;-67
2022/10/24 04:13:53;;;;;;;1.30;1.20;;;18.00;60.20;;;;;;4967538;29;20027;-68
2022/10/24 04:16:19;;;;;;;1.67;1.55;;;18.00;60.20;;;;;;4967448;29;20031;-67
2022/10/24 04:18:45;;;;;;;1.70;1.10;;;18.00;60.20;;;;;;4967446;29;20019;-67
2022/10/24 04:21:11;;;;;;;1.58;1.38;;;18.00;60.20;;;;;;4967402;28;20054;-67
2022/10/24 04:23:39;;;;;;;1.55;1.27;;;18.00;60.20;;;;;;4967269;29;20023;-68
2022/10/24 04:26:12;;;;;;;1.30;1.20;;;18.00;60.20;;;;;;4967345;28;20262;-68
2022/10/24 04:28:38;;;;;;;1.17;1.08;;;18.00;60.20;;;;;;4967262;29;20023;-68
2022/10/24 04:31:04;;;;;;;1.55;1.30;;;18.00;60.20;;;;;;4967264;28;20015;-67
2022/10/24 04:33:29;;;;;;;1.65;1.20;;;18.00;60.20;;;;;;4967186;29;20038;-67
2022/10/24 04:35:55;;;;;;;1.80;1.55;;;18.00;60.30;;;;;;4967107;29;20192;-68
2022/10/24 04:38:21;;;;;;;1.27;1.15;;;18.00;60.20;;;;;;4966914;29;20042;-67
2022/10/24 04:40:52;;;;;;;1.95;1.23;;;18.00;60.20;;;;;;4967078;29;20015;-67
2022/10/24 04:43:20;;;;;;;1.25;1.15;;;18.00;60.20;;;;;;4966904;29;20035;-68
2022/10/24 04:45:46;;;;;;;0.90;0.90;;;18.00;60.20;;;;;;4966985;29;20019;-67
2022/10/24 04:48:12;;;;;;;1.33;1.20;;;18.00;60.20;;;;;;4966917;29;20095;-68
2022/10/24 04:50:39;;;;;;;1.10;1.00;;;18.00;60.20;;;;;;4966866;29;20046;-68
2022/10/24 04:53:05;;;;;;;1.70;1.50;;;18.00;60.20;;;;;;4966744;29;20231;-67
2022/10/24 04:55:31;;;;;;;1.20;1.10;;;18.00;60.80;;;;;;4966610;28;20086;-67
2022/10/24 04:57:57;;;;;;;1.30;1.20;;;18.00;60.30;;;;;;4966577;29;20087;-68
2022/10/24 05:00:23;;;;;;;1.33;1.08;;;18.00;60.20;;;;;;4966677;29;20023;-67
2022/10/24 05:02:49;;;;;;;1.17;1.08;;;18.00;60.20;;;;;;4966555;29;20023;-67
2022/10/24 05:05:16;;;;;;;1.27;1.17;;;18.00;60.20;;;;;;4966602;28;20078;-67
2022/10/24 05:07:43;;;;;;;0.93;0.90;;;18.00;60.20;;;;;;4981528;28;20334;-68
2022/10/24 05:10:09;;;;;;;1.40;1.30;;;18.00;60.20;;;;;;4966466;29;20019;-68
2022/10/24 05:12:35;;;;;;;1.02;1.00;;;18.00;60.30;;;;;;4966433;29;20023;-68
2022/10/24 05:15:01;;;;;;;1.83;1.67;;;18.00;60.30;;;;;;4966369;29;20022;-68
2022/10/24 05:17:27;;;;;;;1.20;1.10;;;18.00;60.20;;;;;;4966332;29;20055;-67
2022/10/24 05:19:52;;;;;;;1.10;1.00;;;18.00;60.30;;;;;;4966322;29;20046;-67
2022/10/24 05:22:18;;;;;;;1.40;1.15;;;18.00;60.30;;;;;;4965003;29;20103;-67
2022/10/24 05:24:44;;;;;;;1.38;1.27;;;18.00;60.20;;;;;;4966206;29;20023;-68
2022/10/24 05:27:10;;;;;;;1.20;1.10;;;18.00;60.30;;;;;;4966162;29;20026;-67
2022/10/24 05:29:36;;;;;;;1.38;1.13;;;18.00;60.30;;;;;;4966106;29;20019;-67
2022/10/24 05:32:01;;;;;;;1.52;1.42;;;18.00;60.20;;;;;;4966122;29;20082;-67
2022/10/24 05:34:27;;;;;;;1.20;1.10;;;18.00;60.30;;;;;;4966017;29;20023;-68
2022/10/24 05:36:54;;;;;;;1.52;1.42;;;18.00;60.30;;;;;;4966034;29;20031;-66
2022/10/24 05:39:19;;;;;;;1.48;1.38;;;18.00;60.30;;;;;;4965829;29;20046;-67
2022/10/24 05:41:45;;;;;;;1.80;1.55;;;18.00;60.30;;;;;;4965931;28;20215;-67
2022/10/24 05:44:11;;;;;;;1.80;1.30;;;18.00;60.30;;;;;;4965784;29;20030;-67
2022/10/24 05:46:38;;;;;;;1.13;1.02;;;18.00;60.30;;;;;;4965853;28;20215;-68
2022/10/24 05:49:04;;;;;;;1.40;1.30;;;18.00;60.20;;;;;;4965846;28;20062;-67
2022/10/24 05:51:29;;;;;;;1.10;1.00;;;18.00;60.20;;;;;;4965768;29;20023;-68
2022/10/24 05:53:55;;;;;;;1.30;1.10;;;18.00;60.20;;;;;;4965746;28;20239;-67
2022/10/24 05:56:21;;;;;;;1.73;1.63;;;18.00;60.20;;;;;;4965736;29;20369;-67
2022/10/24 05:58:47;;;;;;;1.75;1.13;;;18.00;60.30;;;;;;4965644;29;20023;-67
2022/10/24 06:01:12;;;;;;;1.30;1.20;;;18.00;60.30;;;;;;4965663;28;20030;-67
2022/10/24 06:03:38;;;;;;;1.30;1.20;;;18.00;60.30;;;;;;4965546;28;20066;-68
2022/10/24 06:06:06;;;;;;;1.10;1.00;;;18.00;60.30;;;;;;4965580;29;20029;-68
2022/10/24 06:08:36;;;;;;;1.10;1.00;;;18.00;60.30;;;;;;4964872;28;20015;-67
2022/10/24 06:11:03;;;;;;;1.30;1.10;;;18.00;60.30;;;;;;4965511;29;20023;-67
2022/10/24 06:13:29;;;;;;;1.40;1.13;;;18.00;60.30;;;;;;4965431;29;20019;-68
2022/10/24 06:15:55;;;;;;;1.88;1.17;;;18.00;60.30;;;;;;4965451;28;20027;-68
2022/10/24 06:18:21;;;;;;;0.98;0.90;;;18.00;60.30;;;;;;4965395;29;20015;-68
2022/10/24 06:20:46;;;;;;;1.30;1.20;;;18.00;60.30;;;;;;4965375;29;20083;-67
2022/10/24 06:23:12;;;;;;;0.90;0.90;;;18.00;60.30;;;;;;4965265;29;20062;-67
2022/10/24 06:25:41;;;;;;;1.08;0.93;;;18.00;60.30;;;;;;4965315;28;20066;-68
2022/10/24 06:28:08;;;;;;;1.55;1.45;;;18.00;60.30;;;;;;4965287;29;20020;-68
2022/10/24 06:30:34;;;;;;;1.40;1.20;;;18.00;60.30;;;;;;4965310;28;20207;-67
2022/10/24 06:33:01;;;;;;;1.45;1.00;;;18.00;60.20;;;;;;4965274;28;20059;-68
2022/10/24 06:35:27;;;;;;;1.85;1.30;;;18.00;60.20;;;;;;4965241;28;20081;-67
2022/10/24 06:37:53;;;;;;;1.45;1.35;;;18.00;60.20;;;;;;4965232;28;20264;-67
2022/10/24 06:40:18;;;;;;;1.80;1.35;;;18.00;60.20;;;;;;4965049;29;20043;-67
2022/10/24 06:42:45;;;;;;;1.10;1.08;;;18.00;60.20;;;;;;4965094;29;20034;-67
2022/10/24 06:45:11;;;;;;;1.20;1.10;;;18.00;60.20;;;;;;4980117;28;20024;-68
2022/10/24 06:47:37;;;;;;;1.30;1.05;;;18.00;60.20;;;;;;4965097;29;20325;-68
2022/10/24 06:50:04;;;;;;;1.15;1.05;;;18.00;60.20;;;;;;4965135;28;20027;-68
2022/10/24 06:52:30;;;;;;;1.60;1.20;;;18.00;60.20;;;;;;4965033;29;20042;-67
2022/10/24 06:54:55;;;;;;;1.27;1.10;;;18.00;60.20;;;;;;4965049;29;20321;-67
2022/10/24 06:57:21;;;;;;;1.38;1.25;;;18.00;60.20;;;;;;4965027;29;20334;-67
2022/10/24 06:59:47;;;;;;;1.52;1.42;;;18.00;60.20;;;;;;4965002;29;20192;-67
2022/10/24 07:02:14;;;;;;;1.40;1.30;;;18.00;60.20;;;;;;4964902;29;20019;-68
2022/10/24 07:04:40;;;;;;;1.10;0.93;;;18.00;60.20;;;;;;4964972;29;20083;-67
2022/10/24 07:07:06;;;;;;;1.52;1.42;;;18.00;60.30;;;;;;4964934;29;20019;-67
2022/10/24 07:09:33;;;;;;;1.58;1.40;;;18.00;60.30;;;;;;4964919;29;20053;-67
2022/10/24 07:11:59;;;;;;;1.38;1.20;;;18.00;60.30;;;;;;4965161;29;20026;-67
2022/10/24 07:14:25;;;;;;;1.40;1.30;;;18.00;60.30;;;;;;4979861;28;20050;-67
2022/10/24 07:16:51;;;;;;;1.70;1.30;;;17.90;60.20;;;;;;4964886;28;20087;-67
2022/10/24 07:19:17;;;;;;;1.65;1.55;;;18.00;60.30;;;;;;4965783;28;20023;-68
2022/10/24 07:21:43;;;;;;;1.48;1.33;;;18.00;60.30;;;;;;4968477;29;20023;-68
2022/10/24 07:24:11;;;;;;;1.67;1.25;;;18.00;60.30;;;;;;4968375;29;20062;-67
2022/10/24 07:26:37;;;;;;;;;;;18.00;60.30;;;;;;4968842;29;20311;-67
2022/10/24 07:29:03;;;;;;;1.67;1.33;;;18.00;60.20;;;;;;4968351;28;20006;-68
2022/10/24 07:31:31;;;;;;;1.48;1.20;;;18.00;60.20;;;;;;4968288;29;20027;-67
2022/10/24 07:33:58;;;;;;;1.50;1.33;;;18.00;60.20;;;;;;4968304;29;20095;-69
2022/10/24 07:36:25;;;;;;;1.40;1.15;;;18.00;60.10;;;;;;4968273;28;20027;-69
2022/10/24 07:38:53;;;;;;;1.85;1.55;;;18.00;60.10;;;;;;4967989;29;20208;-69
2022/10/24 07:41:20;;;;;;;1.40;1.30;;;18.00;60.10;;;;;;4968409;29;20037;-69
2022/10/24 07:43:45;;;;;;;2.03;1.40;;;18.00;60.10;;;;;;4983026;28;20030;-68
2022/10/24 07:46:13;;;;;;;1.33;1.23;;;18.00;60.10;;;;;;4968125;28;20023;-69
2022/10/24 07:48:41;;;;;;;1.38;1.20;;;18.00;60.10;;;;;;4968034;29;20203;-68
2022/10/24 07:51:09;;;;;;;1.23;1.00;;;18.00;60.10;;;;;;4967998;28;20015;-69
2022/10/24 07:53:36;;;;;;;1.40;1.30;;;18.00;60.20;;;;;;4967991;28;20015;-68
2022/10/24 07:56:05;;;;;;;1.65;1.55;;;18.00;60.20;;;;;;4967883;29;20031;-68
2022/10/24 07:58:31;;;;;;;1.50;1.40;;;18.00;60.20;;;;;;4967836;29;20192;-69
2022/10/24 08:01:06;;;;;;;1.40;1.30;;;18.00;60.20;;;;;;4967845;28;20034;-66
2022/10/24 08:03:32;;;;;;;1.63;1.20;;;18.00;60.20;;;;;;4967723;28;20034;-68
2022/10/24 08:05:58;;;;;;;1.35;1.17;;;18.00;60.10;;;;;;4967708;29;20086;-68
2022/10/24 08:08:25;;;;;;;1.30;1.00;;;18.00;60.10;;;;;;4967683;28;20087;-68
2022/10/24 08:10:51;;;;;;;1.40;1.30;;;18.00;60.10;;;;;;4967611;29;20214;-67
2022/10/24 08:13:17;;;;;;;1.30;1.20;;;18.00;60.10;;;;;;4967590;28;20042;-68
2022/10/24 08:15:43;;;;;;;1.50;1.40;;;18.00;60.10;;;;;;4967525;29;20034;-67
2022/10/24 08:18:08;;;;;;;1.00;1.00;;;18.00;60.00;;;;;;4967460;29;20047;-68
2022/10/24 08:20:34;;;;;;;1.23;1.10;;;18.00;60.00;;;;;;4967494;28;20023;-68
2022/10/24 08:23:00;;;;;;;1.42;1.33;;;18.00;60.00;;;;;;4967353;29;20026;-67
2022/10/24 08:25:26;;;;;;;1.27;1.17;;;18.00;60.00;;;;;;4967375;29;20053;-68
2022/10/24 08:27:52;;;;;;;1.33;1.23;;;18.10;60.00;;;;;;4967315;29;20026;-67
2022/10/24 08:30:19;;;;;;;2.50;1.63;;;18.10;60.00;;;;;;4967062;28;20027;-68
2022/10/24 08:32:45;;;;;;;1.38;1.20;;;18.10;59.90;;;;;;4966816;28;20019;-67
2022/10/24 08:35:16;;;;;;;1.38;1.10;;;18.10;60.00;;;;;;4967203;28;20327;-67
2022/10/24 08:37:42;;;;;;;1.55;1.35;;;18.10;59.90;;;;;;4967223;28;20327;-67
2022/10/24 08:40:14;;;;;;;1.77;1.30;;;18.10;60.00;;;;;;4966948;29;20054;-67
2022/10/24 08:42:40;;;;;;;2.42;1.40;;;18.10;60.00;;;;;;4967016;28;20058;-67
2022/10/24 08:45:14;;;;;;;1.70;1.40;;;18.10;60.00;;;;;;4967003;29;20285;-67
2022/10/24 08:48:02;;;;;;;1.80;1.50;;;18.00;59.90;;;;;;4965834;29;20091;-68
2022/10/24 08:50:30;;;;;;;;;;;18.10;60.00;;;;;;4967337;29;20020;-67
2022/10/24 08:53:01;;;;;;;1.13;1.02;;;18.00;60.00;;;;;;4966958;28;19902;-67
2022/10/24 08:55:38;;;;;;;2.00;1.35;;;18.10;60.10;;;;;;4966854;28;20023;-68
2022/10/24 08:58:06;;;;;;;1.73;1.63;;;18.00;59.90;;;;;;4966731;28;20034;-67
2022/10/24 09:00:38;;;;;;;1.48;1.17;;;18.00;60.00;;;;;;4966708;29;20019;-67
2022/10/24 09:03:19;;;;;;;1.67;1.58;;;18.00;60.00;;;;;;4966625;29;20303;-67
2022/10/24 09:05:49;;;;;;;1.50;1.40;;;18.00;60.00;;;;;;4966644;29;20019;-67
2022/10/24 09:08:51;;;;;;;1.48;1.38;;;18.00;60.10;;;;;;4966592;29;20026;-68
2022/10/24 09:11:45;;;;;;;1.80;1.60;;;18.00;60.10;;;;;;4966486;29;20022;-67
2022/10/24 09:14:17;;;;;;;2.00;1.35;;;18.00;60.00;;;;;;4973728;28;20087;-68
2022/10/24 09:16:47;;;;;;;1.67;1.58;;;18.00;60.00;;;;;;4965273;29;20042;-67
2022/10/24 09:19:20;;;;;;;1.55;1.30;;;18.00;60.10;;;;;;4966318;29;20019;-67
2022/10/24 09:21:48;;;;;;;1.58;1.48;;;18.00;60.00;;;;;;4966328;29;20045;-68
2022/10/24 09:24:34;;;;;;;1.50;1.40;;;18.00;60.10;;;;;;4966252;29;20026;-69
2022/10/24 09:27:03;;;;;;;1.42;1.33;;;18.00;60.20;;;;;;4966258;29;20019;-68
2022/10/24 09:29:32;;;;;;;1.50;1.40;;;18.00;60.10;;;;;;4966173;28;20015;-67
2022/10/24 09:31:57;;;;;;;;;;;18.00;60.10;;;;;;4966569;29;20015;-68
2022/10/24 09:34:23;;;;;;;1.50;1.40;;;18.00;60.10;;;;;;4966085;29;19949;-67
2022/10/24 09:36:50;;;;;;;0.98;0.98;;;18.00;60.10;;;;;;4966063;29;20023;-67
2022/10/24 09:39:31;;;;;;;1.13;1.02;;;18.00;60.10;;;;;;4965847;29;20055;-67
2022/10/24 09:41:58;;;;;;;1.50;1.30;;;18.00;60.10;;;;;;4965792;28;20058;-67
2022/10/24 09:44:37;;;;;;;1.20;1.10;;;18.00;60.10;;;;;;4965209;29;20239;-67
2022/10/24 09:47:05;;;;;;;1.30;1.20;;;18.00;60.10;;;;;;4980904;28;20192;-67
2022/10/24 09:49:37;;;;;;;1.55;1.40;;;18.00;60.10;;;;;;4965863;28;20019;-67
2022/10/24 09:52:26;;;;;;;1.60;1.50;;;18.00;60.10;;;;;;4965804;29;20070;-67
2022/10/24 09:55:17;;;;;;;1.45;1.35;;;18.00;60.10;;;;;;4965692;28;20035;-68
2022/10/24 09:57:43;;;;;;;2.17;1.70;;;18.00;60.20;;;;;;4965734;29;20030;-68
2022/10/24 10:00:27;;;;;;;1.10;0.98;;;18.00;60.10;;;;;;4965676;29;20192;-68
2022/10/24 10:03:20;;;;;;;1.55;1.45;;;18.00;60.70;;;;;;4965554;29;20315;-68
2022/10/24 10:05:49;;;;;;;2.13;1.40;;;18.10;60.10;;;;;;4965602;29;20043;-67
2022/10/24 10:08:22;;;;;;;1.20;0.98;;;18.00;60.00;;;;;;4965585;29;20257;-66
2022/10/24 10:10:56;;;;;;;1.30;1.20;;;18.10;60.10;;;;;;4965578;29;20292;-67
2022/10/24 10:13:24;;;;;;;1.60;1.50;;;18.10;60.00;;;;;;4965506;29;20026;-69
2022/10/24 10:15:57;;;;;;;2.30;1.63;;;18.10;60.00;;;;;;4965465;29;20251;-69
2022/10/24 10:18:22;;;;;;;1.33;1.23;;;18.10;60.00;;;;;;4965407;29;20027;-69
2022/10/24 10:21:00;;;;;;;1.20;1.10;;;18.10;60.00;;;;;;4965397;29;20263;-69
2022/10/24 10:23:35;;;;;;;2.20;1.27;;;18.10;59.80;;;;;;4965367;28;20019;-69
2022/10/24 10:26:12;;;;;;;1.15;1.05;;;18.10;59.90;;;;;;4965371;29;20066;-67
2022/10/24 10:29:04;;;;;;;1.40;1.30;;;18.10;59.80;;;;;;4965371;29;20303;-66
2022/10/24 10:31:40;;;;;;;1.23;1.08;;;18.10;59.80;;;;;;4967332;28;20434;-68
2022/10/24 10:34:15;;;;;;;2.10;1.40;;;18.10;59.90;;;;;;4965318;29;20035;-68
2022/10/24 10:36:52;;;;;;;1.67;1.50;;;18.00;60.00;;;;;;4964072;29;20251;-67
2022/10/24 10:39:36;;;;;;;1.20;1.10;;;18.00;60.10;;;;;;4965120;29;20260;-67
2022/10/24 10:42:13;;;;;;;1.45;1.35;;;18.00;60.20;;;;;;4965245;29;20027;-68
2022/10/24 10:45:18;;;;;;;1.60;1.35;;;18.00;60.10;;;;;;4965175;29;20094;-67
2022/10/24 10:47:52;;;;;;;1.73;1.52;;;18.00;60.10;;;;;;4965164;29;20027;-68
2022/10/24 10:50:34;;;;;;;1.42;1.33;;;18.00;60.20;;;;;;4965160;29;20024;-67
2022/10/24 10:53:20;;;;;;;1.33;1.23;;;18.00;60.30;;;;;;4964788;29;20027;-67
2022/10/24 10:56:10;;;;;;;1.27;1.17;;;18.00;60.30;;;;;;4968511;29;20070;-68
2022/10/24 10:58:54;;;;;;;1.55;1.23;;;18.00;60.30;;;;;;4969011;29;20030;-67
2022/10/24 11:01:32;;;;;;;1.52;1.17;;;18.00;60.40;;;;;;4968924;29;20046;-67
2022/10/24 11:04:19;;;;;;;1.25;1.15;;;18.00;60.40;;;;;;4968837;29;20323;-68
2022/10/24 11:07:02;;;;;;;1.85;1.45;;;18.00;60.40;;;;;;4968778;29;20015;-67
2022/10/24 11:09:30;;;;;;;1.55;1.20;;;18.00;60.30;;;;;;4968778;29;20022;-67
2022/10/24 11:11:59;;;;;;;1.40;1.30;;;18.00;60.30;;;;;;4968734;28;20082;-67
2022/10/24 11:14:33;;;;;;;1.60;1.33;;;18.00;60.30;;;;;;4968666;29;20215;-67
2022/10/24 11:17:21;;;;;;;1.40;1.30;;;18.00;60.30;;;;;;4968670;29;20042;-67
2022/10/24 11:20:02;;;;;;;1.38;1.27;;;18.00;60.30;;;;;;4983436;28;20207;-67
2022/10/24 11:22:39;;;;;;;1.35;1.23;;;18.00;60.40;;;;;;4968508;28;20086;-68
2022/10/24 11:25:29;;;;;;;1.40;1.30;;;18.00;60.50;;;;;;4968521;29;20015;-67
2022/10/24 11:28:05;;;;;;;1.48;1.20;;;18.00;60.40;;;;;;4968299;28;20208;-67
2022/10/24 11:30:44;;;;;;;1.38;1.20;;;18.00;60.30;;;;;;4967254;29;20022;-67
2022/10/24 11:33:20;;;;;;;1.42;1.30;;;18.10;60.20;;;;;;4968394;29;20086;-67
2022/10/24 11:36:05;;;;;;;2.65;1.55;;;18.00;60.20;;;;;;4968332;29;20070;-68
2022/10/24 11:38:34;;;;;;;2.25;1.50;;;18.10;60.20;;;;;;4968128;29;20238;-68
2022/10/24 11:41:33;;;;;;;1.98;1.20;;;18.10;60.10;;;;;;4968243;29;20023;-67
2022/10/24 11:44:12;;;;;;;1.95;1.50;;;18.10;60.10;;;;;;4968095;29;20027;-67
2022/10/24 11:46:43;;;;;;;;;;;18.10;60.10;;;;;;4968579;29;20031;-67
2022/10/24 11:49:20;;;;;;;1.60;1.40;;;18.10;60.20;;;;;;4968054;28;19909;-68
2022/10/24 11:51:56;;;;;;;1.40;1.30;;;18.00;60.30;;;;;;4968111;29;20362;-68
2022/10/24 11:54:31;;;;;;;1.63;1.52;;;18.10;60.40;;;;;;4968003;29;20196;-67
2022/10/24 11:57:19;;;;;;;1.63;1.30;;;18.00;60.40;;;;;;4967971;29;20019;-67
2022/10/24 11:59:44;;;;;;;1.50;1.40;;;18.00;60.40;;;;;;4967922;29;20188;-67
2022/10/24 12:02:31;;;;;;;1.58;1.25;;;18.00;60.50;;;;;;4967769;28;20304;-68
2022/10/24 12:05:17;;;;;;;1.30;1.20;;;18.00;60.50;;;;;;4966596;28;20305;-67
2022/10/24 12:08:01;;;;;;;1.63;1.52;;;18.00;60.50;;;;;;4967258;28;20381;-68
2022/10/24 12:10:50;;;;;;;1.30;1.20;;;18.00;60.40;;;;;;4967707;29;20074;-68
2022/10/24 12:13:33;;;;;;;1.65;1.45;;;18.00;60.40;;;;;;4966551;28;20046;-67
2022/10/24 12:16:18;;;;;;;1.20;1.10;;;18.00;60.40;;;;;;4967580;29;20202;-68
2022/10/24 12:18:49;;;;;;;1.45;1.33;;;18.00;60.40;;;;;;4967589;28;20082;-67
2022/10/24 12:21:24;;;;;;;1.38;1.23;;;18.10;60.40;;;;;;4967532;29;20103;-67
2022/10/24 12:23:55;;;;;;;1.30;1.08;;;18.10;60.40;;;;;;4967395;29;20023;-68
2022/10/24 12:26:33;;;;;;;1.17;1.08;;;18.10;60.40;;;;;;4967375;29;20030;-67
2022/10/24 12:29:02;;;;;;;1.50;1.30;;;18.10;60.30;;;;;;4982363;28;20022;-68
2022/10/24 12:31:34;;;;;;;1.30;1.10;;;18.10;60.30;;;;;;4967274;29;20318;-68
2022/10/24 12:34:15;;;;;;;1.40;1.30;;;18.00;60.40;;;;;;4967274;29;20023;-68
2022/10/24 12:37:08;;;;;;;1.70;1.33;;;18.00;60.40;;;;;;4967228;28;20207;-67
2022/10/24 12:39:41;;;;;;;1.58;1.40;;;18.00;60.60;;;;;;4967042;28;20042;-68
2022/10/24 12:42:33;;;;;;;1.63;1.48;;;18.00;60.60;;;;;;4967119;29;20235;-68
2022/10/24 12:44:59;;;;;;;1.88;1.23;;;18.00;60.70;;;;;;4966909;29;20322;-67
2022/10/24 12:47:34;;;;;;;1.35;1.23;;;18.00;60.60;;;;;;4967008;29;20070;-66
2022/10/24 12:50:21;;;;;;;2.13;1.55;;;18.00;60.60;;;;;;4966964;28;20035;-67
2022/10/24 12:52:47;;;;;;;1.30;1.20;;;18.00;60.60;;;;;;4966922;29;20315;-67
2022/10/24 12:55:35;;;;;;;1.95;1.40;;;18.00;60.60;;;;;;4966822;29;20260;-67
2022/10/24 12:58:02;;;;;;;1.33;1.23;;;18.00;60.60;;;;;;4966813;29;20026;-67
2022/10/24 13:00:30;;;;;;;1.30;1.20;;;18.00;60.60;;;;;;4966735;29;20023;-67
2022/10/24 13:03:20;;;;;;;0.88;0.88;;;18.00;60.50;;;;;;4966641;29;20049;-67
2022/10/24 13:06:05;;;;;;;1.50;1.40;;;18.00;60.50;;;;;;4966717;29;20027;-67
2022/10/24 13:08:39;;;;;;;1.58;1.48;;;18.00;60.40;;;;;;4966625;29;20019;-68